Time;durP1;ratioP1;P1;durP2;ratioP2;P2;SDS_P1;SDS_P2;PMS_P1;PMS_P2;Temp;Humidity;BMP_temperature;BMP_pressure;BME280_temperature;BME280_humidity;BME280_pressure;Samples;Min_cycle;Max_cycle;Signal;HPM_P1;HPM_P2
2023/10/13 00:01:04;;;;;;;0.68;0.10;;;18.50;50.80;;;;;;6105088;23;20151;-85
2023/10/13 00:03:31;;;;;;;1.58;0.40;;;18.50;50.80;;;;;;6129700;23;20170;-85
2023/10/13 00:06:03;;;;;;;1.42;0.38;;;18.50;50.80;;;;;;6129724;23;20219;-86
2023/10/13 00:08:29;;;;;;;0.75;0.32;;;18.50;50.90;;;;;;6107407;23;20174;-85
2023/10/13 00:10:59;;;;;;;0.40;0.28;;;18.50;50.90;;;;;;6131374;23;20170;-84
2023/10/13 00:13:28;;;;;;;1.55;0.20;;;18.50;50.90;;;;;;6060446;23;20159;-86
2023/10/13 00:15:58;;;;;;;0.43;0.20;;;18.40;50.90;;;;;;6131161;23;20143;-86
2023/10/13 00:18:33;;;;;;;0.20;0.17;;;18.50;51.00;;;;;;6083880;23;20159;-86
2023/10/13 00:21:03;;;;;;;0.52;0.30;;;18.40;51.70;;;;;;6132197;23;20135;-84
2023/10/13 00:23:32;;;;;;;0.85;0.28;;;18.50;51.20;;;;;;6130530;23;20629;-86
2023/10/13 00:25:59;;;;;;;0.50;0.20;;;18.50;51.20;;;;;;6131729;23;20156;-86
2023/10/13 00:28:26;;;;;;;0.20;0.20;;;18.50;51.20;;;;;;6106414;23;20159;-84
2023/10/13 00:30:53;;;;;;;0.47;0.30;;;18.50;51.20;;;;;;6106582;23;20543;-87
2023/10/13 00:33:20;;;;;;;0.45;0.30;;;18.40;51.00;;;;;;6131216;23;20193;-85
2023/10/13 00:35:47;;;;;;;1.27;0.30;;;18.50;51.20;;;;;;6131103;23;20143;-84
2023/10/13 00:38:13;;;;;;;0.20;0.20;;;18.50;51.20;;;;;;6131143;23;20151;-86
2023/10/13 00:40:41;;;;;;;0.30;0.20;;;18.50;51.20;;;;;;6130394;23;20567;-86
2023/10/13 00:45:57;;;;;;;0.88;0.20;;;18.50;51.20;;;;;;6135306;23;20143;-86
2023/10/13 00:48:32;;;;;;;0.68;0.30;;;18.40;51.30;;;;;;6131094;23;20227;-84
2023/10/13 00:51:02;;;;;;;0.90;0.30;;;18.40;51.30;;;;;;6131641;23;20138;-87
2023/10/13 00:53:29;;;;;;;0.30;0.30;;;18.40;51.30;;;;;;6130416;23;20151;-84
2023/10/13 00:55:56;;;;;;;0.55;0.32;;;18.50;51.50;;;;;;6130630;23;20144;-85
2023/10/13 00:58:22;;;;;;;0.15;0.13;;;18.40;51.30;;;;;;6147564;23;20189;-87
2023/10/13 01:00:56;;;;;;;0.43;0.20;;;18.40;51.30;;;;;;6072401;23;20975;-85
2023/10/13 01:03:26;;;;;;;0.32;0.32;;;18.40;51.40;;;;;;6073547;23;20203;-87
2023/10/13 01:05:54;;;;;;;1.92;0.40;;;18.40;51.40;;;;;;6049086;23;20184;-87
2023/10/13 01:08:34;;;;;;;0.20;0.20;;;18.40;51.40;;;;;;6072928;23;20137;-88
2023/10/13 01:11:07;;;;;;;0.40;0.30;;;18.40;51.50;;;;;;6097688;23;20129;-84
2023/10/13 01:13:36;;;;;;;0.40;0.20;;;18.40;51.50;;;;;;6024808;23;20239;-86
2023/10/13 01:16:04;;;;;;;0.63;0.20;;;18.40;51.50;;;;;;6073203;23;20231;-85
2023/10/13 01:18:30;;;;;;;0.60;0.20;;;18.40;51.60;;;;;;6046865;23;20488;-84
2023/10/13 01:20:59;;;;;;;0.22;0.20;;;18.40;51.60;;;;;;6071971;23;20141;-86
2023/10/13 01:23:28;;;;;;;0.28;0.28;;;18.30;51.50;;;;;;6072514;23;20623;-85
2023/10/13 01:25:56;;;;;;;2.05;0.30;;;18.40;51.60;;;;;;6097466;23;20133;-84
2023/10/13 01:28:23;;;;;;;0.47;0.30;;;18.40;51.70;;;;;;6048048;23;20159;-85
2023/10/13 01:30:50;;;;;;;1.08;0.30;;;18.40;51.70;;;;;;6085461;23;20257;-88
2023/10/13 01:33:25;;;;;;;0.45;0.30;;;18.40;51.60;;;;;;6048391;23;20215;-87
2023/10/13 01:36:06;;;;;;;1.30;0.20;;;18.40;51.70;;;;;;6073365;23;20164;-86
2023/10/13 01:38:33;;;;;;;0.25;0.20;;;18.40;51.80;;;;;;6028039;23;20156;-87
2023/10/13 01:40:59;;;;;;;0.68;0.20;;;18.40;51.70;;;;;;6048442;23;20156;-84
2023/10/13 01:43:25;;;;;;;0.25;0.20;;;18.40;51.80;;;;;;6071762;23;20184;-85
2023/10/13 01:45:50;;;;;;;0.73;0.28;;;18.40;51.80;;;;;;6048091;23;20231;-86
2023/10/13 01:48:18;;;;;;;0.20;0.20;;;18.40;51.70;;;;;;6072037;23;20203;-87
2023/10/13 01:50:47;;;;;;;0.38;0.25;;;18.40;51.90;;;;;;6097338;23;20567;-85
2023/10/13 01:53:17;;;;;;;0.38;0.28;;;18.40;52.60;;;;;;6047182;23;20161;-83
2023/10/13 01:55:43;;;;;;;0.65;0.20;;;18.40;52.00;;;;;;6097393;23;20133;-85
2023/10/13 01:58:14;;;;;;;0.40;0.30;;;18.40;52.00;;;;;;6049200;23;20168;-84
2023/10/13 02:00:42;;;;;;;0.30;0.20;;;18.30;52.10;;;;;;6077384;23;20192;-87
2023/10/13 02:03:16;;;;;;;0.32;0.20;;;18.40;52.10;;;;;;6100491;23;20258;-87
2023/10/13 02:05:47;;;;;;;0.43;0.30;;;18.30;52.10;;;;;;6077796;23;20187;-85
2023/10/13 02:08:23;;;;;;;0.82;0.30;;;18.40;52.10;;;;;;6101303;23;20128;-87
2023/10/13 02:10:49;;;;;;;0.22;0.22;;;18.30;52.10;;;;;;6100461;23;20174;-87
2023/10/13 02:13:17;;;;;;;1.42;0.30;;;18.30;52.10;;;;;;6100637;23;20140;-86
2023/10/13 02:15:44;;;;;;;0.25;0.20;;;18.30;52.20;;;;;;6100721;23;20216;-85
2023/10/13 02:18:13;;;;;;;0.55;0.20;;;18.30;52.20;;;;;;6100112;23;20148;-87
2023/10/13 02:20:43;;;;;;;0.20;0.20;;;18.30;52.30;;;;;;6100688;23;20204;-87
2023/10/13 02:23:10;;;;;;;0.43;0.20;;;18.30;52.30;;;;;;6077806;23;20186;-85
2023/10/13 02:25:45;;;;;;;0.57;0.30;;;18.30;52.20;;;;;;6100715;23;20133;-87
2023/10/13 02:28:14;;;;;;;0.95;0.30;;;18.30;52.20;;;;;;6102411;23;20159;-86
2023/10/13 02:30:44;;;;;;;0.57;0.30;;;18.30;52.40;;;;;;6051334;23;20846;-86
2023/10/13 02:33:11;;;;;;;0.20;0.20;;;18.30;52.40;;;;;;6076893;23;20487;-86
2023/10/13 02:35:42;;;;;;;0.32;0.22;;;18.30;52.50;;;;;;6126208;23;20136;-84
2023/10/13 02:38:11;;;;;;;0.70;0.22;;;18.30;52.40;;;;;;6052686;23;20160;-84
2023/10/13 02:40:38;;;;;;;0.60;0.35;;;18.30;52.60;;;;;;6101032;23;20133;-84
2023/10/13 02:43:05;;;;;;;0.52;0.30;;;18.30;52.60;;;;;;6100559;23;20164;-88
2023/10/13 02:45:32;;;;;;;0.43;0.20;;;18.30;52.50;;;;;;6076273;23;20151;-88
2023/10/13 02:48:16;;;;;;;0.13;0.10;;;18.30;52.50;;;;;;6100819;23;20564;-85
2023/10/13 02:50:45;;;;;;;0.60;0.20;;;18.30;52.50;;;;;;6104789;23;20132;-86
2023/10/13 02:53:13;;;;;;;0.20;0.20;;;18.30;52.50;;;;;;6075838;23;20255;-86
2023/10/13 02:58:39;;;;;;;0.45;0.20;;;18.30;52.60;;;;;;6102324;23;20207;-85
2023/10/13 03:01:16;;;;;;;0.63;0.20;;;18.30;52.60;;;;;;6101836;23;20136;-86
2023/10/13 03:03:47;;;;;;;1.40;0.20;;;18.30;52.60;;;;;;6099980;23;20180;-85
2023/10/13 03:06:14;;;;;;;0.52;0.20;;;18.30;52.70;;;;;;6100811;23;20193;-86
2023/10/13 03:08:40;;;;;;;0.30;0.30;;;18.20;52.70;;;;;;6100840;23;20228;-88
2023/10/13 03:11:09;;;;;;;0.80;0.30;;;18.20;52.70;;;;;;6100013;23;20194;-87
2023/10/13 03:13:36;;;;;;;0.63;0.30;;;18.30;52.70;;;;;;6028146;23;20499;-86
2023/10/13 03:16:04;;;;;;;0.32;0.20;;;18.20;52.80;;;;;;6100944;23;20174;-87
2023/10/13 03:18:33;;;;;;;2.58;0.28;;;18.20;52.70;;;;;;6101516;23;20136;-87
2023/10/13 03:21:02;;;;;;;0.35;0.30;;;18.20;52.80;;;;;;6101516;23;20136;-86
2023/10/13 03:23:28;;;;;;;0.20;0.20;;;18.20;52.80;;;;;;6101194;23;20176;-86
2023/10/13 03:25:55;;;;;;;0.35;0.20;;;18.20;52.80;;;;;;6076523;23;20227;-87
2023/10/13 03:28:33;;;;;;;1.17;0.28;;;18.20;52.80;;;;;;6100578;23;20139;-87
2023/10/13 03:31:01;;;;;;;0.20;0.20;;;18.20;52.80;;;;;;6031565;23;20163;-85
2023/10/13 03:33:26;;;;;;;0.47;0.30;;;18.20;52.90;;;;;;6076547;23;20156;-84
2023/10/13 03:36:05;;;;;;;0.30;0.20;;;18.20;52.80;;;;;;6100627;23;20163;-84
2023/10/13 03:38:36;;;;;;;0.20;0.20;;;18.20;52.90;;;;;;6057168;23;20604;-86
2023/10/13 03:43:45;;;;;;;0.35;0.30;;;18.20;52.90;;;;;;6103414;23;20485;-86
2023/10/13 03:46:15;;;;;;;0.20;0.20;;;18.20;52.90;;;;;;6126579;23;20132;-86
2023/10/13 03:48:52;;;;;;;0.10;0.10;;;18.20;53.00;;;;;;6052443;23;20156;-87
2023/10/13 03:51:18;;;;;;;0.22;0.20;;;18.20;52.90;;;;;;6100545;23;20223;-88
2023/10/13 03:56:26;;;;;;;0.30;0.20;;;18.20;53.00;;;;;;6126846;23;20144;-85
2023/10/13 03:58:54;;;;;;;0.85;0.30;;;18.20;53.10;;;;;;6076389;23;20288;-85
2023/10/13 04:01:31;;;;;;;0.88;0.30;;;18.10;53.10;;;;;;6100691;23;20182;-86
2023/10/13 04:04:11;;;;;;;0.43;0.22;;;18.20;53.10;;;;;;6078193;23;20604;-85
2023/10/13 04:06:54;;;;;;;0.30;0.20;;;18.10;53.10;;;;;;6103584;23;20207;-85
2023/10/13 04:17:33;;;;;;;0.20;0.20;;;18.10;53.20;;;;;;6059534;23;20174;-88
2023/10/13 04:20:27;;;;;;;0.45;0.30;;;18.10;53.20;;;;;;6100712;23;20472;-85
2023/10/13 04:23:16;;;;;;;0.30;0.30;;;18.20;53.20;;;;;;6063939;23;20155;-85
2023/10/13 04:25:51;;;;;;;0.32;0.22;;;18.10;53.20;;;;;;6125871;23;20604;-86
2023/10/13 04:28:34;;;;;;;0.40;0.30;;;18.20;53.30;;;;;;6014831;23;20195;-86
2023/10/13 04:31:11;;;;;;;0.30;0.20;;;18.10;53.20;;;;;;6126203;23;20460;-87
2023/10/13 04:33:51;;;;;;;0.32;0.30;;;18.20;53.30;;;;;;6102946;23;20136;-84
2023/10/13 04:36:22;;;;;;;0.32;0.30;;;18.10;53.30;;;;;;6100362;23;20152;-87
2023/10/13 04:39:09;;;;;;;0.57;0.20;;;18.10;53.30;;;;;;6078012;23;20149;-87
2023/10/13 04:41:42;;;;;;;0.32;0.30;;;18.20;53.40;;;;;;6126323;23;20137;-86
2023/10/13 04:49:52;;;;;;;0.50;0.30;;;18.20;53.40;;;;;;6126424;23;20133;-85
2023/10/13 04:52:44;;;;;;;0.88;0.30;;;18.10;53.40;;;;;;6078454;23;20144;-84
2023/10/13 04:55:16;;;;;;;0.38;0.20;;;18.10;53.40;;;;;;6065511;23;20160;-84
2023/10/13 04:57:49;;;;;;;0.85;0.25;;;18.10;53.50;;;;;;6068240;23;20147;-86
2023/10/13 05:03:17;;;;;;;0.30;0.20;;;18.10;53.50;;;;;;6058236;23;20620;-85
2023/10/13 05:49:09;;;;;;;0.57;0.30;;;18.20;52.90;;;;;;6104149;23;20137;-85
2023/10/13 06:29:19;;;;;;;0.98;0.40;;;18.30;51.90;;;;;;6155834;23;20136;-85
2023/10/13 06:31:46;;;;;;;0.88;0.30;;;18.30;51.90;;;;;;6129930;23;20150;-87
2023/10/13 06:34:15;;;;;;;0.32;0.22;;;18.30;51.90;;;;;;6130264;23;20140;-84
2023/10/13 06:36:46;;;;;;;0.80;0.40;;;18.30;52.00;;;;;;6130752;23;20136;-85
2023/10/13 06:41:53;;;;;;;1.17;0.40;;;18.30;51.90;;;;;;6155632;23;20167;-84
2023/10/13 06:44:23;;;;;;;0.43;0.30;;;18.30;52.00;;;;;;6080599;23;20194;-86
2023/10/13 06:46:49;;;;;;;0.52;0.30;;;18.30;52.00;;;;;;6058767;23;20159;-85
2023/10/13 06:49:18;;;;;;;0.93;0.35;;;18.20;52.00;;;;;;6130153;23;20815;-86
2023/10/13 06:51:49;;;;;;;0.38;0.30;;;18.20;52.10;;;;;;6105919;23;20169;-86
2023/10/13 06:54:22;;;;;;;0.90;0.40;;;18.20;51.90;;;;;;6056460;23;20160;-86
2023/10/13 06:56:52;;;;;;;0.80;0.40;;;18.30;52.00;;;;;;6131521;23;20135;-87
2023/10/13 06:59:17;;;;;;;0.35;0.20;;;18.20;52.00;;;;;;6101124;23;20200;-88
2023/10/13 07:01:48;;;;;;;0.35;0.30;;;18.30;52.00;;;;;;6125427;23;20614;-86
2023/10/13 07:04:15;;;;;;;2.42;0.50;;;18.30;52.00;;;;;;6100286;23;20639;-86
2023/10/13 07:06:48;;;;;;;0.85;0.40;;;18.30;52.10;;;;;;6124960;23;20128;-86
2023/10/13 07:09:39;;;;;;;0.82;0.60;;;18.20;51.90;;;;;;6100540;23;20148;-85
2023/10/13 07:12:03;;;;;;;0.57;0.32;;;18.20;52.00;;;;;;6124743;23;20156;-87
2023/10/13 07:14:33;;;;;;;0.52;0.40;;;18.20;52.10;;;;;;6124944;23;20143;-85
2023/10/13 07:17:02;;;;;;;0.68;0.40;;;18.30;52.10;;;;;;6125300;23;20140;-86
2023/10/13 07:19:28;;;;;;;0.50;0.22;;;18.30;52.00;;;;;;6102315;23;20152;-87
2023/10/13 07:21:59;;;;;;;0.75;0.35;;;18.30;52.00;;;;;;6126790;23;20154;-85
2023/10/13 07:24:31;;;;;;;0.95;0.40;;;18.30;51.90;;;;;;6102976;23;20178;-86
2023/10/13 07:27:04;;;;;;;0.95;0.30;;;18.30;51.90;;;;;;6101542;23;20176;-87
2023/10/13 07:29:35;;;;;;;0.57;0.30;;;18.30;51.90;;;;;;6103139;23;20136;-88
2023/10/13 07:32:03;;;;;;;0.82;0.38;;;18.30;51.80;;;;;;6078035;23;20531;-86
2023/10/13 07:34:32;;;;;;;0.52;0.40;;;18.40;51.80;;;;;;6100030;23;20163;-86
2023/10/13 07:36:59;;;;;;;0.85;0.40;;;18.40;51.80;;;;;;6102569;23;20678;-86
2023/10/13 07:39:28;;;;;;;0.47;0.30;;;18.40;51.80;;;;;;6102036;23;20235;-86
2023/10/13 07:42:03;;;;;;;0.82;0.40;;;18.40;51.80;;;;;;6125765;23;20207;-85
2023/10/13 07:44:33;;;;;;;0.30;0.30;;;18.30;51.80;;;;;;6125908;23;20175;-86
2023/10/13 07:47:03;;;;;;;0.47;0.30;;;18.40;51.90;;;;;;6101962;23;20154;-87
2023/10/13 07:49:31;;;;;;;0.75;0.35;;;18.40;52.10;;;;;;6101528;23;20145;-87
2023/10/13 07:52:36;;;;;;;0.52;0.35;;;18.40;52.20;;;;;;6101401;23;20151;-87
2023/10/13 07:57:31;;;;;;;0.43;0.30;;;18.20;52.30;;;;;;6124782;23;20144;-85
2023/10/13 08:00:10;;;;;;;0.63;0.30;;;18.30;52.40;;;;;;6148356;23;20265;-85
2023/10/13 08:02:53;;;;;;;0.40;0.40;;;18.30;52.40;;;;;;6107401;23;20219;-87
2023/10/13 08:08:04;;;;;;;1.00;0.40;;;18.20;52.60;;;;;;6132779;23;20143;-85
2023/10/13 08:10:36;;;;;;;1.05;0.32;;;18.20;52.70;;;;;;6080785;23;20151;-86
2023/10/13 08:13:12;;;;;;;0.98;0.60;;;18.20;52.60;;;;;;6129071;23;20143;-87
2023/10/13 08:18:33;;;;;;;1.02;0.45;;;18.30;52.60;;;;;;6133493;23;20168;-84
2023/10/13 08:21:06;;;;;;;0.52;0.50;;;18.30;52.50;;;;;;6064718;23;20214;-85
2023/10/13 08:26:29;;;;;;;1.05;0.38;;;18.30;52.50;;;;;;6132220;23;20132;-87
2023/10/13 08:29:49;;;;;;;1.63;0.50;;;18.30;52.60;;;;;;6090302;23;20151;-84
2023/10/13 08:32:05;;;;;;;1.10;0.40;;;18.40;52.70;;;;;;6094745;23;20183;-87
2023/10/13 08:34:59;;;;;;;0.75;0.40;;;18.30;52.70;;;;;;6135019;23;20159;-85
2023/10/13 08:37:32;;;;;;;1.02;0.45;;;18.30;52.80;;;;;;6135405;23;20892;-85
2023/10/13 08:43:11;;;;;;;0.65;0.30;;;18.30;52.90;;;;;;6134120;23;20132;-86
2023/10/13 08:45:53;;;;;;;0.60;0.43;;;18.30;52.90;;;;;;6134914;23;20620;-85
2023/10/13 08:48:17;;;;;;;0.88;0.38;;;18.30;53.00;;;;;;6073943;23;20230;-87
2023/10/13 08:50:55;;;;;;;0.70;0.30;;;18.30;53.10;;;;;;6131163;23;20171;-85
2023/10/13 08:56:15;;;;;;;0.30;0.30;;;18.20;53.10;;;;;;6134663;23;20214;-86
2023/10/13 09:01:48;;;;;;;1.23;0.30;;;18.30;53.20;;;;;;6156579;23;20159;-85
2023/10/13 09:04:21;;;;;;;1.65;0.55;;;18.30;53.20;;;;;;6156678;23;20315;-85
2023/10/13 09:07:03;;;;;;;0.73;0.47;;;18.30;53.10;;;;;;6107504;23;20566;-84
2023/10/13 09:12:39;;;;;;;1.08;0.50;;;18.30;53.20;;;;;;6134895;23;20151;-84
2023/10/13 09:15:19;;;;;;;0.63;0.40;;;18.20;53.20;;;;;;6132710;23;20183;-86
2023/10/13 09:17:53;;;;;;;1.40;0.60;;;18.30;53.20;;;;;;6157088;23;20543;-84
2023/10/13 09:20:43;;;;;;;2.10;0.50;;;18.30;53.20;;;;;;6035954;23;20158;-84
2023/10/13 09:23:12;;;;;;;1.20;0.50;;;18.30;53.30;;;;;;6111345;23;20274;-85
2023/10/13 09:25:38;;;;;;;1.23;0.50;;;18.30;53.40;;;;;;6133033;23;20140;-84
2023/10/13 09:28:18;;;;;;;0.70;0.40;;;18.30;53.30;;;;;;6131387;23;20146;-85
2023/10/13 09:30:47;;;;;;;0.70;0.40;;;18.30;53.20;;;;;;6058163;23;20178;-84
2023/10/13 09:33:15;;;;;;;0.98;0.50;;;18.30;53.40;;;;;;6131011;23;20584;-84
2023/10/13 09:35:49;;;;;;;0.47;0.38;;;18.30;53.30;;;;;;6131800;23;20155;-86
2023/10/13 09:38:17;;;;;;;0.95;0.50;;;18.30;53.40;;;;;;6109393;23;20209;-84
2023/10/13 09:40:57;;;;;;;0.40;0.40;;;18.30;53.30;;;;;;6084784;23;20626;-85
2023/10/13 09:43:23;;;;;;;0.50;0.30;;;18.30;53.30;;;;;;6110041;23;20171;-84
2023/10/13 09:46:02;;;;;;;0.98;0.50;;;18.30;53.50;;;;;;6131808;23;20148;-84
2023/10/13 09:48:40;;;;;;;0.73;0.40;;;18.30;53.40;;;;;;6063726;23;20535;-83
2023/10/13 09:51:12;;;;;;;1.27;0.50;;;18.30;53.40;;;;;;6134235;23;20132;-85
2023/10/13 09:53:38;;;;;;;0.85;0.40;;;18.30;53.30;;;;;;6134110;23;20190;-84
2023/10/13 09:56:14;;;;;;;2.22;0.40;;;18.30;53.30;;;;;;6109805;23;20163;-86
2023/10/13 09:58:47;;;;;;;1.52;0.50;;;18.40;53.50;;;;;;6102330;23;20599;-84
2023/10/13 10:01:20;;;;;;;0.73;0.40;;;18.30;53.50;;;;;;6102604;23;20148;-86
2023/10/13 10:03:52;;;;;;;0.80;0.40;;;18.30;53.40;;;;;;6101765;23;20179;-87
2023/10/13 10:06:28;;;;;;;0.77;0.43;;;18.30;53.50;;;;;;6103079;23;20543;-83
2023/10/13 10:09:12;;;;;;;1.95;0.47;;;18.30;53.50;;;;;;6125920;23;20187;-85
2023/10/13 10:12:08;;;;;;;1.58;0.50;;;18.30;53.50;;;;;;6126183;23;20136;-83
2023/10/13 10:14:56;;;;;;;0.40;0.38;;;18.40;53.40;;;;;;6126224;23;20163;-84
2023/10/13 10:17:22;;;;;;;1.00;0.50;;;18.40;53.40;;;;;;6126177;23;20136;-86
2023/10/13 10:19:53;;;;;;;0.75;0.40;;;18.30;53.40;;;;;;6125946;23;20140;-84
2023/10/13 10:22:33;;;;;;;1.15;0.47;;;18.40;53.50;;;;;;6102365;23;20477;-86
2023/10/13 10:24:59;;;;;;;1.10;0.45;;;18.40;53.50;;;;;;6126265;23;20159;-85
2023/10/13 10:27:29;;;;;;;1.40;0.50;;;18.40;53.50;;;;;;6101994;23;20532;-84
2023/10/13 10:29:56;;;;;;;0.80;0.35;;;18.40;53.50;;;;;;6102090;23;20151;-85
2023/10/13 10:32:35;;;;;;;1.10;0.55;;;18.40;53.30;;;;;;6102092;23;20152;-84
2023/10/13 10:35:07;;;;;;;1.27;0.60;;;18.40;53.30;;;;;;6100640;23;20159;-85
2023/10/13 10:37:45;;;;;;;0.80;0.45;;;18.40;53.40;;;;;;6126319;23;20151;-86
2023/10/13 10:40:19;;;;;;;0.68;0.30;;;18.40;53.40;;;;;;6101813;23;20479;-87
2023/10/13 10:42:52;;;;;;;0.90;0.43;;;18.30;53.40;;;;;;6102851;23;20234;-85
2023/10/13 10:45:22;;;;;;;1.05;0.50;;;18.30;53.50;;;;;;6101389;23;20152;-85
2023/10/13 10:47:48;;;;;;;0.50;0.30;;;18.30;53.40;;;;;;6125814;23;20218;-85
2023/10/13 10:50:26;;;;;;;1.25;0.65;;;18.40;53.40;;;;;;6126013;23;20128;-85
2023/10/13 10:52:57;;;;;;;0.85;0.60;;;18.40;53.40;;;;;;6125472;23;20132;-85
2023/10/13 10:55:28;;;;;;;1.48;0.40;;;18.40;53.30;;;;;;6124813;23;20152;-83
2023/10/13 10:58:03;;;;;;;1.00;0.63;;;18.30;53.40;;;;;;6101656;23;20140;-86
2023/10/13 11:00:45;;;;;;;1.40;0.60;;;18.30;53.40;;;;;;6124909;23;20215;-83
2023/10/13 11:03:11;;;;;;;0.88;0.47;;;18.30;53.40;;;;;;6126371;23;20144;-86
2023/10/13 11:05:52;;;;;;;1.25;0.52;;;18.30;53.40;;;;;;6125312;23;20170;-85
2023/10/13 11:08:38;;;;;;;1.45;0.73;;;18.30;53.30;;;;;;6107416;23;20148;-84
2023/10/13 11:11:17;;;;;;;1.17;0.70;;;18.30;53.30;;;;;;6103237;23;20159;-84
2023/10/13 11:13:54;;;;;;;0.80;0.50;;;18.40;53.20;;;;;;6083128;23;20595;-85
2023/10/13 11:16:24;;;;;;;0.95;0.57;;;18.40;53.10;;;;;;6104975;23;20152;-83
2023/10/13 11:19:06;;;;;;;0.43;0.38;;;18.40;53.00;;;;;;6108752;23;20148;-84
2023/10/13 11:21:32;;;;;;;0.82;0.50;;;18.40;53.10;;;;;;6111459;23;20178;-82
2023/10/13 11:24:08;;;;;;;1.38;0.50;;;18.40;53.00;;;;;;6139348;23;20179;-83
2023/10/13 11:26:47;;;;;;;1.10;0.63;;;18.40;53.10;;;;;;6113163;23;20171;-83
2023/10/13 11:29:30;;;;;;;1.58;0.63;;;18.40;53.20;;;;;;6109733;23;20187;-85
2023/10/13 11:32:03;;;;;;;1.00;0.50;;;18.50;53.10;;;;;;6129429;23;20160;-85
2023/10/13 11:34:39;;;;;;;2.20;0.55;;;18.40;53.10;;;;;;6066030;23;20200;-84
2023/10/13 11:37:28;;;;;;;0.85;0.57;;;18.40;53.20;;;;;;6065481;23;20137;-84
2023/10/13 11:39:51;;;;;;;1.67;0.77;;;18.30;53.10;;;;;;6045153;23;20164;-87
2023/10/13 11:42:19;;;;;;;2.15;0.50;;;18.30;53.00;;;;;;6017977;23;20183;-86
2023/10/13 11:44:45;;;;;;;1.27;0.60;;;18.40;53.00;;;;;;6042058;23;20558;-85
2023/10/13 11:49:56;;;;;;;0.95;0.57;;;18.40;53.00;;;;;;6064093;23;20648;-83
2023/10/13 11:52:26;;;;;;;1.45;0.50;;;18.40;53.10;;;;;;6064594;23;20145;-84
2023/10/13 11:54:51;;;;;;;1.60;0.57;;;18.40;53.10;;;;;;6063969;23;20494;-85
2023/10/13 11:57:19;;;;;;;1.05;0.65;;;18.40;53.10;;;;;;6066584;23;20145;-84
2023/10/13 11:59:52;;;;;;;1.58;0.60;;;18.40;53.10;;;;;;6065287;23;20201;-86
2023/10/13 12:05:11;;;;;;;0.93;0.50;;;18.40;53.90;;;;;;6084258;23;20194;-84
2023/10/13 12:07:45;;;;;;;1.40;0.63;;;18.30;53.20;;;;;;6079891;23;20159;-85
2023/10/13 12:12:54;;;;;;;0.98;0.50;;;18.40;53.10;;;;;;6127397;23;20329;-85
2023/10/13 12:15:36;;;;;;;1.88;0.60;;;18.40;53.20;;;;;;6078264;23;20595;-87
2023/10/13 12:18:05;;;;;;;1.95;0.73;;;18.30;53.00;;;;;;6101318;23;20737;-87
2023/10/13 12:20:35;;;;;;;0.85;0.55;;;18.40;53.10;;;;;;6101642;23;20220;-86
2023/10/13 12:23:09;;;;;;;1.58;0.90;;;18.30;53.20;;;;;;6102742;23;20124;-85
2023/10/13 12:26:19;;;;;;;1.13;0.70;;;18.40;53.10;;;;;;6103499;23;20151;-86
2023/10/13 12:28:26;;;;;;;0.75;0.57;;;18.40;53.00;;;;;;6104504;23;20171;-85
2023/10/13 12:30:52;;;;;;;1.80;0.63;;;18.40;52.80;;;;;;6077606;23;20140;-86
2023/10/13 12:36:06;;;;;;;0.47;0.40;;;18.30;52.80;;;;;;6105012;23;20146;-85
2023/10/13 12:49:38;;;;;;;0.55;0.40;;;18.40;52.70;;;;;;6106045;23;20151;-83
2023/10/13 12:51:57;;;;;;;1.67;0.75;;;18.40;52.80;;;;;;6097010;23;20239;-85
2023/10/13 12:54:24;;;;;;;1.38;0.65;;;18.40;52.70;;;;;;6100910;23;20151;-85
2023/10/13 12:56:56;;;;;;;2.15;0.73;;;18.40;52.90;;;;;;6102902;23;20149;-85
2023/10/13 12:59:26;;;;;;;1.63;0.60;;;18.40;52.80;;;;;;6103388;23;20192;-84
2023/10/13 13:01:52;;;;;;;1.55;0.80;;;18.40;52.80;;;;;;6103881;23;20615;-86
2023/10/13 13:04:20;;;;;;;1.77;0.82;;;18.50;52.60;;;;;;6127621;23;20168;-83
2023/10/13 13:06:46;;;;;;;1.35;0.75;;;18.40;52.80;;;;;;6101203;23;20139;-85
2023/10/13 13:09:12;;;;;;;1.08;0.60;;;18.40;52.80;;;;;;6077690;23;20182;-84
2023/10/13 13:11:39;;;;;;;1.40;0.70;;;18.40;52.60;;;;;;6101755;23;20156;-84
2023/10/13 13:14:07;;;;;;;1.50;0.70;;;18.40;52.80;;;;;;6077492;23;20151;-84
2023/10/13 13:16:38;;;;;;;1.65;0.70;;;18.40;52.70;;;;;;6127087;23;20560;-84
2023/10/13 13:19:48;;;;;;;1.10;0.75;;;18.40;52.70;;;;;;6102308;23;20143;-83
2023/10/13 13:22:14;;;;;;;2.47;0.80;;;18.40;52.70;;;;;;6101643;23;20475;-84
2023/10/13 13:24:44;;;;;;;1.13;0.50;;;18.40;52.80;;;;;;6101968;23;20626;-84
2023/10/13 13:27:19;;;;;;;1.38;0.60;;;18.30;52.80;;;;;;6101761;23;20148;-85
2023/10/13 13:29:45;;;;;;;0.93;0.52;;;18.40;52.80;;;;;;6078498;23;20143;-85
2023/10/13 13:35:05;;;;;;;2.40;0.70;;;18.40;52.80;;;;;;6017300;23;20169;-84
2023/10/13 13:37:39;;;;;;;1.13;0.70;;;18.40;52.50;;;;;;5967997;23;20154;-84
2023/10/13 13:40:14;;;;;;;2.35;0.90;;;18.40;52.60;;;;;;5968918;23;20150;-84
2023/10/13 13:42:49;;;;;;;2.72;0.80;;;18.50;52.50;;;;;;5993793;23;20145;-84
2023/10/13 13:45:21;;;;;;;1.98;0.95;;;18.40;52.60;;;;;;5990839;23;20173;-84
2023/10/13 13:47:53;;;;;;;1.13;0.63;;;18.40;52.40;;;;;;5959054;23;20154;-84
2023/10/13 13:50:24;;;;;;;1.95;0.68;;;18.40;52.40;;;;;;6014372;23;20241;-83
2023/10/13 13:52:52;;;;;;;1.27;0.73;;;18.40;52.40;;;;;;5991563;23;20225;-85
2023/10/13 13:55:19;;;;;;;1.85;0.70;;;18.40;52.40;;;;;;5967651;23;20653;-83
2023/10/13 13:57:50;;;;;;;1.67;0.80;;;18.40;52.30;;;;;;5990504;23;20277;-83
2023/10/13 14:00:28;;;;;;;1.73;0.75;;;18.40;52.20;;;;;;5966624;23;20298;-84
2023/10/13 14:02:56;;;;;;;1.00;0.70;;;18.40;52.40;;;;;;5965448;23;20283;-85
2023/10/13 14:05:23;;;;;;;1.80;0.77;;;18.40;52.20;;;;;;6034214;23;20617;-84
2023/10/13 14:07:49;;;;;;;1.92;0.75;;;18.40;52.10;;;;;;6047241;23;20167;-84
2023/10/13 14:11:10;;;;;;;1.83;1.00;;;18.50;52.30;;;;;;6070756;23;20153;-84
2023/10/13 14:13:13;;;;;;;2.30;0.77;;;18.40;52.30;;;;;;6075132;23;20185;-84
2023/10/13 14:15:44;;;;;;;1.65;0.70;;;18.40;52.30;;;;;;6049607;23;20147;-84
2023/10/13 14:18:14;;;;;;;2.50;1.05;;;18.40;52.30;;;;;;6048300;23;20592;-83
2023/10/13 14:20:42;;;;;;;1.30;0.70;;;18.30;52.10;;;;;;6049803;23;20137;-85
2023/10/13 14:23:11;;;;;;;1.65;0.88;;;18.40;52.00;;;;;;6047449;23;20152;-83
2023/10/13 14:25:38;;;;;;;1.98;0.85;;;18.40;52.10;;;;;;6072216;23;20187;-83
2023/10/13 14:28:05;;;;;;;1.83;0.90;;;18.40;52.20;;;;;;6047452;23;20140;-83
2023/10/13 14:30:34;;;;;;;1.98;0.90;;;18.40;52.40;;;;;;6070733;23;20144;-83
2023/10/13 14:32:59;;;;;;;1.15;0.70;;;18.40;52.30;;;;;;6096303;23;20156;-83
2023/10/13 14:35:26;;;;;;;1.38;0.85;;;18.40;52.50;;;;;;6023525;23;20144;-84
2023/10/13 14:37:53;;;;;;;1.40;0.70;;;18.30;52.50;;;;;;6071418;23;20224;-84
2023/10/13 14:40:21;;;;;;;1.58;0.77;;;18.30;52.50;;;;;;6023607;23;20565;-84
2023/10/13 14:42:48;;;;;;;1.00;0.55;;;18.30;52.40;;;;;;6096460;23;20129;-83
2023/10/13 14:45:16;;;;;;;1.75;0.80;;;18.30;52.30;;;;;;6072850;23;20173;-84
2023/10/13 14:47:42;;;;;;;3.90;0.95;;;18.30;52.50;;;;;;6048307;23;20180;-84
2023/10/13 14:50:19;;;;;;;2.53;1.10;;;18.30;52.20;;;;;;6070907;23;20143;-84
2023/10/13 14:52:45;;;;;;;4.82;0.90;;;18.30;52.30;;;;;;6039455;23;20125;-84
2023/10/13 14:55:18;;;;;;;1.63;0.70;;;18.30;52.30;;;;;;6096841;23;20144;-84
2023/10/13 14:57:47;;;;;;;0.95;0.70;;;18.40;52.20;;;;;;6037891;23;20155;-84
2023/10/13 15:00:14;;;;;;;3.78;0.73;;;18.30;52.30;;;;;;6095707;23;20196;-83
2023/10/13 15:02:43;;;;;;;3.15;0.80;;;18.30;52.30;;;;;;6126134;23;20137;-84
2023/10/13 15:05:16;;;;;;;1.75;0.80;;;18.30;52.40;;;;;;6099963;23;20179;-86
2023/10/13 15:07:44;;;;;;;2.55;0.75;;;18.40;52.50;;;;;;6079743;23;20148;-84
2023/10/13 15:10:14;;;;;;;1.85;0.60;;;18.30;52.50;;;;;;6101504;23;20152;-84
2023/10/13 15:12:42;;;;;;;3.67;1.00;;;18.40;52.80;;;;;;6079332;23;20190;-86
2023/10/13 15:15:13;;;;;;;2.72;0.80;;;18.30;52.80;;;;;;6128139;23;20155;-86
2023/10/13 15:17:40;;;;;;;2.22;0.95;;;18.30;52.80;;;;;;6077308;23;20580;-85
2023/10/13 15:20:09;;;;;;;2.35;1.00;;;18.30;52.80;;;;;;6076460;23;20156;-82
2023/10/13 15:22:38;;;;;;;2.03;0.95;;;18.40;52.80;;;;;;6078666;23;20477;-83
2023/10/13 15:25:09;;;;;;;2.03;0.88;;;18.40;52.70;;;;;;6100127;23;20220;-85
2023/10/13 15:27:41;;;;;;;1.98;0.90;;;18.30;52.70;;;;;;6078024;23;20152;-84
2023/10/13 15:30:19;;;;;;;2.83;1.10;;;18.30;52.70;;;;;;6099700;23;20148;-84
2023/10/13 15:32:45;;;;;;;1.45;0.65;;;18.30;52.80;;;;;;6102893;23;20128;-84
2023/10/13 15:35:12;;;;;;;3.63;1.00;;;18.30;52.70;;;;;;6101107;23;20159;-84
2023/10/13 15:37:40;;;;;;;3.22;1.25;;;18.40;52.70;;;;;;6101219;23;20145;-85
2023/10/13 15:40:09;;;;;;;4.07;1.10;;;18.30;52.80;;;;;;6077775;23;20607;-82
2023/10/13 15:42:41;;;;;;;3.53;0.82;;;18.30;52.90;;;;;;6127268;23;20143;-83
2023/10/13 15:45:16;;;;;;;2.38;0.98;;;18.30;52.90;;;;;;6104244;23;20168;-82
2023/10/13 15:47:45;;;;;;;1.98;0.90;;;18.30;52.90;;;;;;6129898;23;20127;-83
2023/10/13 15:50:15;;;;;;;3.25;1.13;;;18.30;53.00;;;;;;6103216;23;20133;-83